Tiempo atmosférico en la estación meteorológica de El Pedregal, Guadalajara (1185 m.)



Fecha
DESCASC
Temp. máxima en grados centígrados (hora)
DESCASC
Temp. mínima en grados centígrados (hora)
DESCASC
Temp. media en grados centígrados
DESCASC
Racha de viento máxima en m/sg (hora)
DESCASC
Velocidad máxima media en intervalos de 10 minutos(hora)
DESCASC
Precipitaciones diarias en mm
DESCASC
Precipitaciones de 00:00 a 06:00 en mm
DESCASC
Precipitaciones de 06:00 a 12:00 en mm
DESCASC
Precipitaciones de 12:00 a 18:00 en mm
DESCASC
Precipitaciones de 18:00 a 24:00 en mm
DESCASC
20-09-2018 26.9 (13:00) 12.7 (06:40) 19.8 6.94 (21:30) 4.17 (17:40) 0.4 0 0 0.4 0
19-09-2018 27.9 (18:00) 10.7 (08:00) 19.3 10.28 (16:20) 3.89 (16:00) 0 0 0 0 0
18-09-2018 25.9 (16:30) 11.5 (05:10) 18.7 14.44 (19:20) 7.5 (19:20) 3.6 0 0 0.2 3.4
17-09-2018 27.9 (14:20) 11.1 (07:20) 19.5 10 (14:30) 6.67 (14:40) 7 0 0 6.2 0.8
16-09-2018 28 (16:50) 10.9 (00:00) 19.4 6.11 (09:30) 4.44 (09:40) 0 0 0 0 0
15-09-2018 26.9 (16:30) 10.9 (00:00) 18.9 9.17 (17:50) 5.28 (17:50) 0 0 0 0 0
14-09-2018 28.5 (17:20) 10.5 (00:00) 19.5 9.72 (18:50) 5.56 (18:50) 0 0 0 0 0
13-09-2018 26.9 (17:10) 12 (00:00) 19.4 7.78 (14:50) 4.17 (15:00) 0 0 0 0 0
12-09-2018 25.3 (18:10) 12.2 (00:00) 18.7 10.83 (06:10) 5 (06:10) 4.8 1.6 3.2 0 0
11-09-2018 22.3 (11:40) 9.9 (00:00) 16.1 10 (13:00) 5 (12:10) 14.6 0 0 10.8 3.8
10-09-2018 23.3 (16:40) 11.9 (00:00) 17.6 9.17 (17:40) 4.72 (17:40) 1 0 0 1 0
09-09-2018 24.5 (17:10) 12.1 (00:00) 18.3 11.39 (19:10) 7.5 (19:10) 0.2 0 0 0 0.2
08-09-2018 25.1 (16:40) 9.6 (00:00) 17.4 11.94 (12:50) 6.11 (13:00) 0 0 0 0 0
07-09-2018 24.4 (15:30) 9 (00:00) 16.7 8.06 (13:20) 4.72 (18:30) 0 0 0 0 0
06-09-2018 23.1 (16:20) 10.5 (00:00) 16.8 7.78 (16:50) 5 (16:50) 1.6 0 0 1.2 0.4
05-09-2018 26.3 (15:40) 11.5 (00:00) 18.9 10.83 (18:00) 6.11 (18:00) 0 0 0 0 0
04-09-2018 27.9 (13:40) 12.1 (00:00) 20 11.39 (00:20) 6.67 (00:10) 0.2 0 0 0.2 0
03-09-2018 30.4 (16:40) 15.1 (00:00) 22.8 15 (21:10) 8.33 (20:40) 3 0 3 0 0
02-09-2018 31.1 (18:20) 13 (00:00) 22.1 8.33 (16:00) 3.61 (13:40) 2 0 0 0 2
01-09-2018 29.7 (18:10) 11.6 (00:00) 20.7 6.67 (16:30) 4.17 (16:30) 0 0 0 0 0
31-08-2018 27 (15:20) 12.7 (00:00) 19.8 8.89 (17:10) 5 (19:00) 0.2 0 0.2 0 0
30-08-2018 -- (--) -- (--) -- -- (--) -- (--) -- -- -- -- 5.8
29-08-2018 -- (--) -- (--) -- -- (--) -- (--) -- -- -- -- --
28-08-2018 -- (--) -- (--) -- -- (--) -- (--) -- 0 0 0 --
27-08-2018 33.6 (18:20) 11.2 (00:00) 22.4 6.94 (19:40) 4.44 (17:00) 0 0 0 0 0
26-08-2018 29.1 (17:20) 7.8 (00:00) 18.5 8.89 (16:20) 4.72 (17:10) 0 0 0 0 0
25-08-2018 27.2 (15:40) 9.2 (00:00) 18.2 8.61 (17:50) 5.56 (17:10) 0 0 0 0 0
24-08-2018 27 (16:30) 11 (00:00) 19 7.78 (15:50) 5 (19:40) 0 0 0 0 0

Gráficas

Temp. máximas Temp. mínimas Temp. medias Precipitaciones Rachas de viento máximas Velocidades máximas media en intervalos de 10 minutos

Datos horarios

Fecha y hora oficial Temperatura (ºC) Velocidad del viento (km/h) Dirección del viento Racha (km/h) Dirección de racha Precipitación (mm) Presión (hPa) Tendencia (hPa) Humedad (%)
2018-09-22 23:00:00 16.4 0 Calma 6 Sudeste 0 -- -- 65
2018-09-22 22:00:00 16.6 0 Calma 4 Oeste 0 -- -- 64
2018-09-22 21:00:00 18.7 0 Calma 7 Noroeste 0 -- -- 56
2018-09-22 20:00:00 23.7 5 Noroeste 14 Norte 0 -- -- 38
2018-09-22 19:00:00 27.2 8 Norte 17 Norte 0 -- -- 36
2018-09-22 18:00:00 29.1 6 Noroeste 20 Oeste 0 -- -- 33
2018-09-22 17:00:00 29.1 6 Sudoeste 24 Oeste 0 -- -- 30
2018-09-22 16:00:00 28 12 Oeste 31 Oeste 0 -- -- 32
2018-09-22 15:00:00 27.5 11 Oeste 28 Oeste 0 -- -- 36
2018-09-22 14:00:00 26.8 12 Oeste 32 Oeste 0 -- -- 38
2018-09-22 13:00:00 26 11 Noroeste 21 Noroeste 0 -- -- 42
2018-09-22 12:00:00 25.2 11 Oeste 18 Oeste 0 -- -- 47
2018-09-22 11:00:00 23.1 9 Oeste 15 Oeste 0 -- -- 54
2018-09-22 10:00:00 19.7 10 Oeste 16 Noroeste 0 -- -- 65
2018-09-22 09:00:00 15.7 11 Oeste 15 Oeste 0 -- -- 76
2018-09-22 08:00:00 12.6 5 Oeste 11 Sudoeste 0 -- -- 87
2018-09-22 07:00:00 12.4 6 Oeste 11 Oeste 0 -- -- 86
2018-09-22 06:00:00 11.7 6 Oeste 10 Oeste 0 -- -- 87
2018-09-22 05:00:00 11.6 4 Oeste 9 Oeste 0 -- -- 89
2018-09-22 04:00:00 11.6 4 Oeste 6 Oeste 0 -- -- 88
2018-09-22 03:00:00 12 0 Calma 6 Oeste 0 -- -- 86
2018-09-22 02:00:00 12.7 5 Oeste 7 Oeste 0 -- -- 84
2018-09-22 01:00:00 14 0 Calma 8 Sudeste 0 -- -- 80
2018-09-22 00:00:00 15.6 6 Sudeste 12 Este 0 -- -- 73
2018-09-21 23:00:00 16.7 5 Este 12 Este 0 -- -- 68
2018-09-21 22:00:00 17.9 0 Calma 7 Noroeste 0 -- -- 67
2018-09-21 21:00:00 19.7 4 Norte 12 Norte 0 -- -- 59
2018-09-21 20:00:00 22.7 4 Noroeste 10 Noroeste 0 -- -- 45
2018-09-21 19:00:00 24.5 6 Norte 15 Norte 0 -- -- 43
2018-09-21 18:00:00 26 6 Noroeste 17 Norte 0 -- -- 40
2018-09-21 17:00:00 28.4 8 Norte 19 Noroeste 0 -- -- 37
2018-09-21 16:00:00 27.2 10 Norte 19 Oeste 0 -- -- 38
2018-09-21 15:00:00 27.2 9 Noroeste 19 Sudoeste 0 -- -- 39
2018-09-21 14:00:00 26.4 7 Sudoeste 17 Oeste 0 -- -- 41
2018-09-21 13:00:00 26.1 4 Oeste 14 Noroeste 0 -- -- 43
2018-09-21 12:00:00 24.5 4 Noroeste 17 Oeste 0 -- -- 46
2018-09-21 11:00:00 23.5 7 Noroeste 18 Oeste 0.2 -- -- 47
2018-09-21 10:00:00 20.5 11 Oeste 17 Oeste 0 -- -- 57
2018-09-21 09:00:00 18.2 10 Oeste 18 Oeste 0 -- -- 60
2018-09-21 08:00:00 14.3 12 Oeste 17 Oeste 0 -- -- 73
2018-09-21 07:00:00 14.7 9 Oeste 15 Oeste 0 -- -- 72
2018-09-21 06:00:00 14.4 9 Oeste 12 Oeste 0 -- -- 76
2018-09-21 05:00:00 16.2 7 Oeste 18 Oeste 0 -- -- 69
2018-09-21 04:00:00 17.1 9 Oeste 17 Oeste 0 -- -- 65
2018-09-21 03:00:00 16.9 6 Oeste 12 Oeste 0 -- -- 65
2018-09-21 02:00:00 14.6 4 Oeste 8 Oeste 0 -- -- 77
2018-09-21 01:00:00 14.4 4 Oeste 11 Sudoeste 0 -- -- 80
2018-09-21 00:00:00 15.6 0 Calma 12 Sur 0 -- -- 74
2018-09-20 23:00:00 17.1 4 Oeste 10 Oeste 0 -- -- 70
2018-09-20 22:00:00 17.3 7 Oeste 25 Noroeste 0 -- -- 73
2018-09-20 21:00:00 18.6 8 Oeste 15 Oeste 0 -- -- 73
2018-09-20 20:00:00 20.1 11 Sudoeste 20 Sudoeste 0 -- -- 61
2018-09-20 19:00:00 21.9 3 Oeste 12 Oeste 0 -- -- 63
2018-09-20 18:00:00 19.3 7 Oeste 23 Oeste 0.4 -- -- 74
2018-09-20 17:00:00 24.1 5 Sur 14 Sur 0 -- -- 45
2018-09-20 16:00:00 25.9 8 Sudeste 14 Sudeste 0 -- -- 41
2018-09-20 15:00:00 24.2 3 Sudeste 12 Este 0 -- -- 47
2018-09-20 14:00:00 25.2 4 Sudoeste 15 Sudeste 0 -- -- 49
2018-09-20 13:00:00 26.9 3 Sudeste 10 Sur 0 -- -- 43
2018-09-20 12:00:00 25.1 6 Noroeste 12 Oeste 0 -- -- 45
2018-09-20 11:00:00 24.1 4 Oeste 10 Oeste 0 -- -- 51
2018-09-20 10:00:00 21.8 2 Este 5 Nordeste 0 -- -- 61
2018-09-20 09:00:00 15.6 4 Oeste 10 Oeste 0 -- -- 82
2018-09-20 08:00:00 13 2 Sur 12 Oeste 0 -- -- 87
2018-09-20 07:00:00 13.6 8 Oeste 10 Oeste 0 -- -- 86
2018-09-20 06:00:00 13.4 2 Oeste 10 Oeste 0 -- -- 85
2018-09-20 05:00:00 14 6 Oeste 9 Oeste 0 -- -- 84
2018-09-20 04:00:00 13.5 0 Calma 6 Oeste 0 -- -- 88
2018-09-20 03:00:00 13.8 0 Calma 4 Nordeste 0 -- -- 89
2018-09-20 02:00:00 14 2 Norte 6 Oeste 0 -- -- 87
2018-09-20 01:00:00 14.2 3 Oeste 8 Oeste 0 -- -- 86
2018-09-20 00:00:00 14.3 0 Calma 9 Oeste 0 -- -- 85
2018-09-19 23:00:00 14.9 4 Oeste 6 Oeste 0 -- -- 82
2018-09-19 22:00:00 15.5 6 Oeste 9 Oeste 0 -- -- 77
2018-09-19 21:00:00 17.3 6 Oeste 8 Oeste 0 -- -- 72
2018-09-19 20:00:00 21.1 4 Sur 13 Este 0 -- -- 57
2018-09-19 19:00:00 25.7 8 Este 20 Este 0 -- -- 44
2018-09-19 18:00:00 27.9 4 Noroeste 18 Este 0 -- -- 34
2018-09-19 17:00:00 26.2 8 Norte 37 Norte 0 -- -- 41
2018-09-19 16:00:00 25.9 14 Nordeste 22 Este 0 -- -- 39
2018-09-19 15:00:00 26.3 6 Nordeste 17 Este 0 -- -- 38
2018-09-19 14:00:00 25.8 4 Este 11 Norte 0 -- -- 47
2018-09-19 13:00:00 24.1 4 Sudeste 14 Este 0 -- -- 51
2018-09-19 12:00:00 23.5 6 Sudeste 13 Sudeste 0 -- -- 58
2018-09-19 11:00:00 23.3 2 Sudeste 6 Sudeste 0 -- -- 56
2018-09-19 10:00:00 20.7 0 Calma 4 Nordeste 0 -- -- 69
2018-09-19 09:00:00 14.1 3 Oeste 9 Oeste 0 -- -- 87
2018-09-19 08:00:00 10.7 4 Oeste 9 Oeste 0 -- -- 93
2018-09-19 07:00:00 11.2 3 Oeste 8 Oeste 0 -- -- 93
2018-09-19 06:00:00 11.6 3 Sudoeste 13 Oeste 0 -- -- 92
2018-09-19 05:00:00 11.6 0 Calma 12 Oeste 0 -- -- 92
2018-09-19 04:00:00 11.7 0 Calma 13 Oeste 0 -- -- 92
2018-09-19 03:00:00 12.5 6 Oeste 11 Sudoeste 0 -- -- 93
2018-09-19 02:00:00 12.3 0 Calma 14 Oeste 0 -- -- 93
2018-09-19 01:00:00 13.2 5 Oeste 10 Oeste 0 -- -- 93
2018-09-19 00:00:00 13.2 3 Oeste 7 Oeste 0 -- -- 94
2018-09-18 23:00:00 14.4 0 Calma 22 Sur 0 -- -- 89
2018-09-18 22:00:00 14.8 5 Oeste 10 Noroeste 0 -- -- 90
2018-09-18 21:00:00 14.4 3 Sudoeste 11 Oeste 1 -- -- 92
2018-09-18 20:00:00 15.2 15 Oeste 52 Noroeste 2.4 -- -- 87
2018-09-18 19:00:00 20.2 4 Oeste 13 Nordeste 0 -- -- 62
2018-09-18 18:00:00 21.9 8 Nordeste 18 Nordeste 0 -- -- 60
2018-09-18 17:00:00 23.7 3 Nordeste 17 Nordeste 0 -- -- 50
2018-09-18 16:00:00 23.7 5 Noroeste 15 Noroeste 0 -- -- 47
2018-09-18 15:00:00 24.2 8 Oeste 15 Sudoeste 0.2 -- -- 49
2018-09-18 14:00:00 22.5 6 Nordeste 13 Nordeste 0 -- -- 61
2018-09-18 13:00:00 22.2 6 Nordeste 15 Noroeste 0 -- -- 60
2018-09-18 12:00:00 22.6 6 Oeste 17 Oeste 0 -- -- 62
2018-09-18 11:00:00 20.2 8 Noroeste 16 Noroeste 0 -- -- 68
2018-09-18 10:00:00 18.4 4 Oeste 8 Noroeste 0 -- -- 74
2018-09-18 09:00:00 15 5 Oeste 10 Oeste 0 -- -- 88
2018-09-18 08:00:00 12.3 6 Oeste 14 Oeste 0 -- -- 93
2018-09-18 07:00:00 12.4 8 Oeste 13 Oeste 0 -- -- 93
2018-09-18 06:00:00 12.3 5 Oeste 12 Oeste 0 -- -- 94
2018-09-18 05:00:00 11.6 2 Oeste 5 Oeste 0 -- -- 95
2018-09-18 04:00:00 12.2 0 Calma 11 Oeste 0 -- -- 93
2018-09-18 03:00:00 13 4 Oeste 12 Sudoeste 0 -- -- 92
2018-09-18 02:00:00 14.9 6 Sudoeste 15 Sudoeste 0 -- -- 84
2018-09-18 01:00:00 15 3 Oeste 27 Sur 0 -- -- 87
2018-09-18 00:00:00 14.7 18 Sudoeste 34 Sudoeste 0.2 -- -- 88
2018-09-17 23:00:00 14.9 5 Norte 15 Sudoeste 0 -- -- 87
2018-09-17 22:00:00 14.7 7 Sur 22 Sudeste 0 -- -- 92
2018-09-17 21:00:00 14.8 9 Sudeste 14 Sur 0.4 -- -- 92
2018-09-17 20:00:00 14.7 6 Sudeste 19 Sudeste 0.2 -- -- 92
2018-09-17 19:00:00 14.7 14 Sudeste 25 Este 0 -- -- 93
2018-09-17 18:00:00 16.1 15 Sudeste 22 Sudeste 2.2 -- -- 82
2018-09-17 17:00:00 16.3 9 Norte 31 Oeste 4 -- -- 83
2018-09-17 16:00:00 21.4 5 Noroeste 23 Este 0 -- -- 58
2018-09-17 15:00:00 24.8 19 Sudeste 36 Este 0 -- -- 43
2018-09-17 14:00:00 26 18 Este 26 Este 0 -- -- 45
2018-09-17 13:00:00 26.3 8 Este 22 Este 0 -- -- 47
2018-09-17 12:00:00 24.3 12 Este 18 Este 0 -- -- 51
2018-09-17 11:00:00 24.3 5 Sudeste 9 Sudeste 0 -- -- 50
2018-09-17 10:00:00 22.2 0 Calma 8 Oeste 0 -- -- 58
2018-09-17 09:00:00 14.4 4 Sudoeste 8 Oeste 0 -- -- 81
2018-09-17 08:00:00 11.2 5 Oeste 9 Oeste 0 -- -- 90
2018-09-17 07:00:00 11.6 3 Oeste 13 Oeste 0 -- -- 89
2018-09-17 06:00:00 12.8 9 Oeste 12 Oeste 0 -- -- 85
2018-09-17 05:00:00 13.6 0 Calma 9 Oeste 0 -- -- 82
2018-09-17 04:00:00 14.3 2 Sudeste 12 Oeste 0 -- -- 80
2018-09-17 03:00:00 13.1 2 Norte 10 Oeste 0 -- -- 85
2018-09-17 02:00:00 14.2 7 Oeste 9 Oeste 0 -- -- 82
2018-09-17 01:00:00 14.3 0 Calma 6 Oeste 0 -- -- 75
2018-09-17 00:00:00 14.8 0 Calma 5 Nordeste 0 -- -- 71
2018-09-16 23:00:00 15.7 3 Nordeste 5 Nordeste 0 -- -- 69
2018-09-16 22:00:00 18 0 Calma 16 Este 0 -- -- 59
2018-09-16 21:00:00 20.1 10 Este 21 Este 0 -- -- 51
2018-09-16 20:00:00 21.1 3 Oeste 13 Este 0 -- -- 50
2018-09-16 19:00:00 26.8 8 Nordeste 20 Este 0 -- -- 34
2018-09-16 18:00:00 27.8 8 Nordeste 22 Este 0 -- -- 30
2018-09-16 17:00:00 27.7 9 Nordeste 19 Este 0 -- -- 30
2018-09-16 16:00:00 26.9 7 Nordeste 19 Este 0 -- -- 33
2018-09-16 15:00:00 25.9 10 Norte 16 Noroeste 0 -- -- 36
2018-09-16 14:00:00 25.8 5 Sudoeste 14 Sur 0 -- -- 44
2018-09-16 13:00:00 24.6 6 Sudeste 16 Sudeste 0 -- -- 52
2018-09-16 12:00:00 22.9 5 Sudoeste 16 Noroeste 0 -- -- 55
2018-09-16 11:00:00 20.3 10 Oeste 21 Noroeste 0 -- -- 60
2018-09-16 10:00:00 18.2 12 Oeste 22 Oeste 0 -- -- 68
2018-09-16 09:00:00 15.8 12 Oeste 17 Oeste 0 -- -- 75
2018-09-16 08:00:00 12.4 8 Oeste 16 Oeste 0 -- -- 88
2018-09-16 07:00:00 11.2 0 Calma 8 Oeste 0 -- -- 90
2018-09-16 06:00:00 11.7 0 Calma 8 Sur 0 -- -- 90
2018-09-16 05:00:00 13.2 0 Calma 12 Oeste 0 -- -- 86
2018-09-16 04:00:00 13.7 8 Oeste 16 Oeste 0 -- -- 84
2018-09-16 03:00:00 13.5 10 Oeste 14 Oeste 0 -- -- 84
2018-09-16 02:00:00 13.8 2 Nordeste 13 Sudoeste 0 -- -- 83
2018-09-16 01:00:00 14.6 8 Sudoeste 12 Sudoeste 0 -- -- 82
2018-09-16 00:00:00 13.5 0 Calma 6 Oeste 0 -- -- 88
2018-09-15 23:00:00 14.7 3 Sur 5 Sudeste 0 -- -- 85
2018-09-15 22:00:00 15.7 0 Calma 5 Oeste 0 -- -- 80
2018-09-15 21:00:00 16.7 0 Calma 11 Sudeste 0 -- -- 80
2018-09-15 20:00:00 18.6 6 Sudeste 17 Sudeste 0 -- -- 68
2018-09-15 19:00:00 21.3 10 Sudeste 24 Sudeste 0 -- -- 57
2018-09-15 18:00:00 21 12 Este 33 Este 0 -- -- 53
2018-09-15 17:00:00 25 16 Este 25 Este 0 -- -- 44
2018-09-15 16:00:00 26.2 11 Este 23 Este 0 -- -- 39
2018-09-15 15:00:00 25.8 10 Este 25 Nordeste 0 -- -- 36
2018-09-15 14:00:00 25.5 11 Este 22 Este 0 -- -- 44
2018-09-15 13:00:00 24.5 6 Este 17 Sudeste 0 -- -- 54
2018-09-15 12:00:00 23.2 9 Este 16 Este 0 -- -- 60
2018-09-15 11:00:00 19.2 6 Sudeste 11 Sudeste 0 -- -- 77
2018-09-15 10:00:00 16.8 5 Sudeste 8 Sudeste 0 -- -- 88
2018-09-15 09:00:00 13.9 0 Calma 7 Sudoeste 0 -- -- 94
2018-09-15 08:00:00 12.3 0 Calma 2 Noroeste 0 -- -- 93
2018-09-15 07:00:00 11.8 0 Calma 2 Oeste 0 -- -- 93
2018-09-15 06:00:00 10.9 0 Calma 4 Oeste 0 -- -- 92
2018-09-15 05:00:00 11.2 3 Oeste 6 Oeste 0 -- -- 92
2018-09-15 04:00:00 11.2 3 Oeste 7 Oeste 0 -- -- 90
2018-09-15 03:00:00 11.4 6 Oeste 7 Oeste 0 -- -- 88
2018-09-15 02:00:00 12.1 4 Oeste 5 Oeste 0 -- -- 87
2018-09-15 01:00:00 13.3 2 Oeste 6 Oeste 0 -- -- 82
2018-09-15 00:00:00 13.8 2 Oeste 6 Oeste 0 -- -- 79
2018-09-14 23:00:00 15.3 0 Calma 7 Oeste 0 -- -- 73
2018-09-14 22:00:00 16.7 0 Calma 7 Sur 0 -- -- 70
2018-09-14 21:00:00 19 4 Sudeste 20 Este 0 -- -- 59
2018-09-14 20:00:00 21.1 15 Este 27 Este 0 -- -- 51
2018-09-14 19:00:00 23.4 20 Este 35 Este 0 -- -- 47
2018-09-14 18:00:00 25.7 10 Este 18 Nordeste 0 -- -- 39
2018-09-14 17:00:00 27 9 Nordeste 22 Este 0 -- -- 38
2018-09-14 16:00:00 26.9 8 Nordeste 21 Nordeste 0 -- -- 42
2018-09-14 15:00:00 27.2 6 Este 20 Sudeste 0 -- -- 41
2018-09-14 14:00:00 26.5 9 Nordeste 18 Nordeste 0 -- -- 46
2018-09-14 13:00:00 26 8 Nordeste 15 Este 0 -- -- 47
2018-09-14 12:00:00 23.7 7 Sudeste 12 Sudeste 0 -- -- 52
2018-09-14 11:00:00 23.4 5 Sudeste 9 Sudeste 0 -- -- 45
2018-09-14 10:00:00 20 3 Nordeste 8 Oeste 0 -- -- 58
2018-09-14 09:00:00 15.8 0 Calma 6 Oeste 0 -- -- 73
2018-09-14 08:00:00 11.2 4 Oeste 9 Oeste 0 -- -- 80
2018-09-14 07:00:00 10.5 5 Oeste 8 Oeste 0 -- -- 86
2018-09-14 06:00:00 11 4 Oeste 6 Oeste 0 -- -- 91
2018-09-14 05:00:00 12 4 Oeste 9 Oeste 0 -- -- 90
2018-09-14 04:00:00 11.8 5 Oeste 8 Oeste 0 -- -- 95
2018-09-14 03:00:00 12.1 4 Oeste 7 Oeste 0 -- -- 93
2018-09-14 02:00:00 12.4 2 Oeste 6 Oeste 0 -- -- 93
2018-09-14 01:00:00 13.1 0 Calma 3 Norte 0 -- -- 89
2018-09-14 00:00:00 14 0 Calma 7 Oeste 0 -- -- 88
2018-09-13 23:00:00 14.7 2 Oeste 4 Oeste 0 -- -- 83
2018-09-13 22:00:00 16.3 0 Calma 5 Este 0 -- -- 76
2018-09-13 21:00:00 18 0 Calma 9 Nordeste 0 -- -- 66
2018-09-13 20:00:00 22.9 7 Nordeste 15 Este 0 -- -- 47
2018-09-13 19:00:00 25.7 8 Nordeste 19 Norte 0 -- -- 33
2018-09-13 18:00:00 26.7 7 Norte 19 Norte 0 -- -- 35
2018-09-13 17:00:00 26.2 11 Norte 25 Nordeste 0 -- -- 37
2018-09-13 16:00:00 25.8 11 Norte 23 Nordeste 0 -- -- 34
2018-09-13 15:00:00 25.6 15 Norte 28 Norte 0 -- -- 38
2018-09-13 14:00:00 25.7 10 Norte 22 Norte 0 -- -- 42
2018-09-13 13:00:00 25.3 6 Norte 18 Noroeste 0 -- -- 40
2018-09-13 12:00:00 25.4 8 Nordeste 15 Oeste 0 -- -- 36
2018-09-13 11:00:00 22 10 Oeste 17 Oeste 0 -- -- 48
2018-09-13 10:00:00 19.9 6 Oeste 13 Oeste 0 -- -- 61
2018-09-13 09:00:00 16.7 5 Noroeste 12 Oeste 0 -- -- 72
2018-09-13 08:00:00 12.1 4 Sudoeste 9 Oeste 0 -- -- 88
2018-09-13 07:00:00 12.4 3 Oeste 11 Oeste 0 -- -- 87
2018-09-13 06:00:00 13.1 5 Oeste 12 Oeste 0 -- -- 84
2018-09-13 05:00:00 13.1 4 Oeste 12 Oeste 0 -- -- 86
2018-09-13 04:00:00 13.9 6 Oeste 10 Oeste 0 -- -- 83
2018-09-13 03:00:00 13.9 3 Oeste 12 Oeste 0 -- -- 85
2018-09-13 02:00:00 14.3 8 Oeste 11 Oeste 0 -- -- 84
2018-09-13 01:00:00 14.1 4 Oeste 9 Oeste 0 -- -- 87
2018-09-13 00:00:00 15.5 5 Oeste 8 Oeste 0 -- -- 82
2018-09-12 23:00:00 15.8 0 Calma 10 Oeste 0 -- -- 80
2018-09-12 22:00:00 16.9 8 Oeste 11 Oeste 0 -- -- 72
2018-09-12 21:00:00 19.3 2 Noroeste 10 Norte 0 -- -- 63
2018-09-12 20:00:00 20.5 10 Norte 20 Norte 0 -- -- 59
2018-09-12 19:00:00 22.9 7 Norte 22 Norte 0 -- -- 47
2018-09-12 18:00:00 25.1 10 Norte 25 Norte 0 -- -- 43
2018-09-12 17:00:00 23.9 10 Noroeste 30 Noroeste 0 -- -- 45
2018-09-12 16:00:00 24 12 Noroeste 29 Noroeste 0 -- -- 48
2018-09-12 15:00:00 24.3 13 Noroeste 31 Oeste 0 -- -- 49
2018-09-12 14:00:00 22.5 18 Oeste 30 Oeste 0 -- -- 54
2018-09-12 13:00:00 21.2 16 Oeste 31 Oeste 0 -- -- 61
2018-09-12 12:00:00 20.4 14 Oeste 24 Noroeste 0 -- -- 59
2018-09-12 11:00:00 18.6 9 Noroeste 17 Oeste 0 -- -- 69
2018-09-12 10:00:00 16.7 8 Oeste 14 Oeste 0 -- -- 78
2018-09-12 09:00:00 14.1 0 Calma 11 Sudeste 0 -- -- 91
2018-09-12 08:00:00 12.5 9 Sur 22 Oeste 0.2 -- -- 94
2018-09-12 07:00:00 12.7 12 Sudoeste 39 Oeste 3 -- -- 95
2018-09-12 06:00:00 14.4 14 Oeste 31 Oeste 0 -- -- 93
2018-09-12 05:00:00 14.3 0 Calma 5 Sudeste 0.2 -- -- 97
2018-09-12 04:00:00 14.2 0 Calma 6 Noroeste 1 -- -- 97
2018-09-12 03:00:00 14.3 3 Sur 7 Este 0.4 -- -- 97
2018-09-12 02:00:00 13.7 0 Calma 9 Oeste 0 -- -- 96
2018-09-12 01:00:00 14.6 4 Este 10 Sur 0 -- -- 95
2018-09-12 00:00:00 15.2 3 Sudeste 11 Sudoeste 0 -- -- 95
2018-09-11 23:00:00 15.1 2 Sudeste 9 Oeste 0 -- -- 95
2018-09-11 22:00:00 15.7 6 Sudoeste 10 Sur 0.4 -- -- 93
2018-09-11 21:00:00 15.7 5 Noroeste 17 Este 3.4 -- -- 91
2018-09-11 20:00:00 18 9 Este 12 Este 0 -- -- 81
2018-09-11 19:00:00 19.2 3 Nordeste 17 Este 0 -- -- 80
2018-09-11 18:00:00 17.7 6 Nordeste 13 Nordeste 0 -- -- 82
2018-09-11 17:00:00 18.7 8 Nordeste 17 Nordeste 0 -- -- 71
2018-09-11 16:00:00 18.2 10 Nordeste 15 Nordeste 0.2 -- -- 78
2018-09-11 15:00:00 17.4 5 Nordeste 11 Este 0.2 -- -- 81
2018-09-11 14:00:00 16.1 8 Nordeste 16 Sudeste 4.6 -- -- 87
2018-09-11 13:00:00 15.6 13 Este 36 Sudeste 5.8 -- -- 84
2018-09-11 12:00:00 20.9 17 Este 29 Este 0 -- -- 64
2018-09-11 11:00:00 20.8 11 Este 23 Sudeste 0 -- -- 65
2018-09-11 10:00:00 16.6 2 Este 4 Oeste 0 -- -- 81
2018-09-11 09:00:00 11.6 3 Oeste 5 Oeste 0 -- -- 94
2018-09-11 08:00:00 10.5 5 Oeste 9 Sudoeste 0 -- -- 96
2018-09-11 07:00:00 10 5 Oeste 8 Oeste 0 -- -- 97
2018-09-11 06:00:00 10.2 5 Oeste 9 Oeste 0 -- -- 96
2018-09-11 05:00:00 10.4 2 Oeste 8 Oeste 0 -- -- 95
2018-09-11 04:00:00 11 6 Oeste 8 Oeste 0 -- -- 95
2018-09-11 03:00:00 11.4 0 Calma 9 Oeste 0 -- -- 94
2018-09-11 02:00:00 11.5 2 Oeste 8 Oeste 0 -- -- 93
2018-09-11 01:00:00 11.9 6 Oeste 8 Oeste 0 -- -- 92
2018-09-11 00:00:00 12 4 Oeste 8 Oeste 0 -- -- 89
2018-09-10 23:00:00 13.1 5 Oeste 7 Oeste 0 -- -- 88
2018-09-10 22:00:00 14.3 2 Oeste 3 Sudoeste 0 -- -- 85
2018-09-10 21:00:00 16.8 3 Sur 23 Este 0 -- -- 75
2018-09-10 20:00:00 19.6 14 Este 24 Nordeste 0 -- -- 66
2018-09-10 19:00:00 21.4 14 Nordeste 21 Nordeste 0 -- -- 62
2018-09-10 18:00:00 20.7 8 Nordeste 33 Nordeste 1 -- -- 70
2018-09-10 17:00:00 20.5 15 Nordeste 24 Nordeste 0 -- -- 61
2018-09-10 16:00:00 21.3 12 Nordeste 20 Nordeste 0 -- -- 61
2018-09-10 15:00:00 21.9 10 Nordeste 18 Este 0 -- -- 61
2018-09-10 14:00:00 19.5 9 Nordeste 17 Nordeste 0 -- -- 68
2018-09-10 13:00:00 17.8 5 Sudeste 15 Este 0 -- -- 78
2018-09-10 12:00:00 15.4 10 Nordeste 14 Nordeste 0 -- -- 89
2018-09-10 11:00:00 14.5 10 Nordeste 22 Este 0 -- -- 93
2018-09-10 10:00:00 14.1 8 Este 15 Este 0 -- -- 94
2018-09-10 09:00:00 13.7 7 Este 15 Este 0 -- -- 95
2018-09-10 08:00:00 13.6 5 Nordeste 11 Nordeste 0 -- -- 96
2018-09-10 07:00:00 13.7 5 Este 8 Este 0 -- -- 96
2018-09-10 06:00:00 13.7 3 Este 7 Este 0 -- -- 95
2018-09-10 05:00:00 13.1 0 Calma 3 Nordeste 0 -- -- 94
2018-09-10 04:00:00 12.3 0 Calma 5 Oeste 0 -- -- 93
2018-09-10 03:00:00 12.2 5 Oeste 9 Oeste 0 -- -- 90
2018-09-10 02:00:00 13.5 7 Oeste 13 Oeste 0 -- -- 86
2018-09-10 01:00:00 14.5 2 Sudeste 17 Este 0 -- -- 78
2018-09-10 00:00:00 14.8 5 Sur 22 Sudoeste 0 -- -- 67
2018-09-09 23:00:00 14.9 11 Oeste 29 Noroeste 0 -- -- 66
2018-09-09 22:00:00 14.9 18 Noroeste 35 Noroeste 0 -- -- 69
2018-09-09 21:00:00 15 5 Nordeste 21 Sudeste 0 -- -- 79
2018-09-09 20:00:00 15.4 13 Sudeste 41 Nordeste 0.2 -- -- 76
2018-09-09 19:00:00 15 21 Nordeste 37 Nordeste 0 -- -- 79
2018-09-09 18:00:00 22.1 8 Sur 17 Sudeste 0 -- -- 47
2018-09-09 17:00:00 24.4 3 Sur 13 Sudeste 0 -- -- 42
2018-09-09 16:00:00 22.4 8 Este 17 Este 0 -- -- 47
2018-09-09 15:00:00 22.2 8 Este 28 Este 0 -- -- 48
2018-09-09 14:00:00 24.4 7 Este 29 Este 0 -- -- 47
2018-09-09 13:00:00 23.6 8 Nordeste 20 Este 0 -- -- 50
2018-09-09 12:00:00 20 7 Nordeste 15 Este 0 -- -- 61
2018-09-09 11:00:00 19.8 3 Nordeste 13 Nordeste 0 -- -- 64
2018-09-09 10:00:00 19 5 Nordeste 11 Nordeste 0 -- -- 68
2018-09-09 09:00:00 15.8 3 Oeste 9 Oeste 0 -- -- 79
2018-09-09 08:00:00 13.2 4 Noroeste 13 Oeste 0 -- -- 87
2018-09-09 07:00:00 12.5 7 Oeste 10 Oeste 0 -- -- 92
2018-09-09 06:00:00 12.3 7 Oeste 11 Oeste 0 -- -- 91
2018-09-09 05:00:00 13.2 4 Oeste 6 Oeste 0 -- -- 88
2018-09-09 04:00:00 15.2 3 Oeste 14 Oeste 0 -- -- 83
2018-09-09 03:00:00 16.1 8 Oeste 16 Sudoeste 0 -- -- 79
2018-09-09 02:00:00 16.9 12 Sudoeste 18 Oeste 0 -- -- 76
2018-09-09 01:00:00 16.8 6 Sur 13 Sur 0 -- -- 78
2018-09-09 00:00:00 17.2 5 Sudeste 14 Sudoeste 0 -- -- 76
2018-09-08 23:00:00 17.2 0 Calma 6 Nordeste 0 -- -- 70
2018-09-08 22:00:00 18.1 5 Sur 13 Sur 0 -- -- 64
2018-09-08 21:00:00 18.1 3 Oeste 5 Sudoeste 0 -- -- 63
2018-09-08 20:00:00 20.4 0 Calma 9 Norte 0 -- -- 55
2018-09-08 19:00:00 21.7 7 Sur 18 Sur 0 -- -- 49
2018-09-08 18:00:00 22.2 12 Sur 27 Sur 0 -- -- 48
2018-09-08 17:00:00 23.8 15 Sur 26 Sudeste 0 -- -- 49
2018-09-08 16:00:00 23.7 17 Sur 30 Sur 0 -- -- 44
2018-09-08 15:00:00 23.8 16 Sudeste 28 Sur 0 -- -- 46
2018-09-08 14:00:00 22.7 17 Sur 35 Sudeste 0 -- -- 51
2018-09-08 13:00:00 21.8 22 Sudeste 43 Sudeste 0 -- -- 55
2018-09-08 12:00:00 21.5 14 Sudeste 27 Sudeste 0 -- -- 54
2018-09-08 11:00:00 20.1 12 Sudeste 26 Sudeste 0 -- -- 57
2018-09-08 10:00:00 18.6 11 Sudeste 18 Sudeste 0 -- -- 66
2018-09-08 09:00:00 15.2 5 Sudeste 10 Sur 0 -- -- 79
2018-09-08 08:00:00 9.7 0 Calma 5 Nordeste 0 -- -- 97
2018-09-08 07:00:00 10.4 0 Calma 8 Oeste 0 -- -- 96
2018-09-08 06:00:00 11.3 7 Oeste 10 Oeste 0 -- -- 96
2018-09-08 05:00:00 11.6 4 Oeste 12 Oeste 0 -- -- 93
2018-09-08 04:00:00 12 3 Noroeste 14 Oeste 0 -- -- 90
2018-09-08 03:00:00 14.1 7 Oeste 12 Sudoeste 0 -- -- 83
2018-09-08 02:00:00 14.5 0 Calma 7 Sudeste 0 -- -- 90
2018-09-08 01:00:00 15.2 4 Sudeste 10 Sudeste 0 -- -- 88
2018-09-08 00:00:00 15.2 3 Este 8 Este 0 -- -- 85
2018-09-07 23:00:00 15.7 3 Sudeste 14 Sudeste 0 -- -- 83
2018-09-07 22:00:00 16.8 9 Sur 15 Sudeste 0 -- -- 82
2018-09-07 21:00:00 17.5 2 Sur 7 Sudeste 0 -- -- 68
2018-09-07 20:00:00 18.4 5 Sudeste 24 Sudeste 0 -- -- 61
2018-09-07 19:00:00 19.7 17 Este 24 Este 0 -- -- 61
2018-09-07 18:00:00 20.5 3 Sudeste 12 Sudeste 0 -- -- 58
2018-09-07 17:00:00 19.9 9 Sur 23 Sudeste 0 -- -- 59
2018-09-07 16:00:00 22.6 14 Sudeste 29 Este 0 -- -- 44
2018-09-07 15:00:00 23.6 10 Este 21 Este 0 -- -- 48
2018-09-07 14:00:00 22.5 12 Sudeste 29 Este 0 -- -- 51
2018-09-07 13:00:00 21.4 10 Este 21 Este 0 -- -- 53
2018-09-07 12:00:00 19 9 Sudeste 18 Este 0 -- -- 61
2018-09-07 11:00:00 17.2 9 Este 16 Sudeste 0 -- -- 66
2018-09-07 10:00:00 15.2 12 Este 15 Este 0 -- -- 75
2018-09-07 09:00:00 12.3 8 Sudeste 13 Sudeste 0 -- -- 92
2018-09-07 08:00:00 9.4 5 Este 9 Este 0 -- -- 97
2018-09-07 07:00:00 9.5 7 Sudeste 10 Este 0 -- -- 97
2018-09-07 06:00:00 9.6 7 Este 11 Este 0 -- -- 96
2018-09-07 05:00:00 10.6 6 Sudeste 11 Sudeste 0 -- -- 93
2018-09-07 04:00:00 10.2 6 Este 11 Este 0 -- -- 95
2018-09-07 03:00:00 10.3 7 Este 11 Este 0 -- -- 95
2018-09-07 02:00:00 11.3 9 Sudeste 12 Sudeste 0 -- -- 93
2018-09-07 01:00:00 12 7 Sudeste 13 Sudeste 0 -- -- 91
2018-09-07 00:00:00 12.7 5 Sudeste 13 Este 0 -- -- 91
2018-09-06 23:00:00 13.1 8 Sudeste 14 Este 0 -- -- 92
2018-09-06 22:00:00 13.9 0 Calma 8 Nordeste 0 -- -- 87
2018-09-06 21:00:00 15.1 4 Nordeste 14 Nordeste 0 -- -- 85
2018-09-06 20:00:00 17 6 Nordeste 20 Norte 0.4 -- -- 78
2018-09-06 19:00:00 16.7 14 Nordeste 27 Nordeste 0 -- -- 77
2018-09-06 18:00:00 21.1 12 Nordeste 19 Nordeste 0 -- -- 52
2018-09-06 17:00:00 18.4 14 Nordeste 28 Norte 0 -- -- 64
2018-09-06 16:00:00 22 6 Este 14 Norte 0 -- -- 50
2018-09-06 15:00:00 17.8 5 Norte 17 Este 1.2 -- -- 73
2018-09-06 14:00:00 19.5 10 Nordeste 21 Nordeste 0 -- -- 60
2018-09-06 13:00:00 20.4 12 Nordeste 19 Norte 0 -- -- 59
2018-09-06 12:00:00 20 12 Este 22 Este 0 -- -- 64
2018-09-06 11:00:00 18.1 11 Este 18 Este 0 -- -- 70
2018-09-06 10:00:00 15.2 4 Nordeste 9 Nordeste 0 -- -- 94
2018-09-06 09:00:00 11.7 3 Este 5 Nordeste 0 -- -- 97
2018-09-06 08:00:00 10.7 2 Sudoeste 6 Oeste 0 -- -- 97
2018-09-06 07:00:00 11.5 0 Calma 8 Este 0 -- -- 97
2018-09-06 06:00:00 12 5 Nordeste 10 Nordeste 0 -- -- 96
2018-09-06 05:00:00 10.7 0 Calma 6 Norte 0 -- -- 94
2018-09-06 04:00:00 10.8 0 Calma 5 Oeste 0 -- -- 92
2018-09-06 03:00:00 12 0 Calma 4 Sudoeste 0 -- -- 88
2018-09-06 02:00:00 13.6 0 Calma 9 Sur 0 -- -- 85
2018-09-06 01:00:00 13.5 5 Sudeste 9 Sudeste 0 -- -- 87
2018-09-06 00:00:00 13.9 4 Nordeste 15 Norte 0 -- -- 89
2018-09-05 23:00:00 14.9 11 Norte 21 Nordeste 0 -- -- 83
2018-09-05 22:00:00 17.8 8 Noroeste 14 Oeste 0 -- -- 47
2018-09-05 21:00:00 19.7 5 Oeste 23 Oeste 0 -- -- 40
2018-09-05 20:00:00 22.7 13 Oeste 30 Oeste 0 -- -- 34
2018-09-05 19:00:00 24.2 19 Oeste 34 Oeste 0 -- -- 33
2018-09-05 18:00:00 25.4 22 Oeste 39 Oeste 0 -- -- 32
2018-09-05 17:00:00 26.2 15 Oeste 35 Oeste 0 -- -- 32
2018-09-05 16:00:00 25.8 14 Sudoeste 36 Sudoeste 0 -- -- 32
2018-09-05 15:00:00 25.1 13 Noroeste 27 Oeste 0 -- -- 39
2018-09-05 14:00:00 23.7 10 Oeste 26 Oeste 0 -- -- 39
2018-09-05 13:00:00 23.4 3 Sudeste 17 Sudeste 0 -- -- 52
2018-09-05 12:00:00 23.1 13 Este 18 Este 0 -- -- 59
2018-09-05 11:00:00 24.7 5 Este 12 Este 0 -- -- 49
2018-09-05 10:00:00 20.6 5 Sudeste 14 Este 0 -- -- 61
2018-09-05 09:00:00 14.8 2 Norte 9 Oeste 0 -- -- 91
2018-09-05 08:00:00 12.2 6 Oeste 11 Oeste 0 -- -- 96
2018-09-05 07:00:00 11.9 0 Calma 5 Oeste 0 -- -- 96
2018-09-05 06:00:00 12.3 0 Calma 4 Oeste 0 -- -- 94
2018-09-05 05:00:00 13.6 2 Norte 5 Norte 0 -- -- 93
2018-09-05 04:00:00 14.8 0 Calma 13 Nordeste 0 -- -- 90
2018-09-05 03:00:00 14.8 5 Norte 20 Nordeste 0 -- -- 76
2018-09-05 02:00:00 18.2 11 Sur 21 Sudoeste 0 -- -- 57
2018-09-05 01:00:00 19 16 Sur 22 Sudoeste 0 -- -- 52
2018-09-05 00:00:00 19 15 Sudoeste 20 Sur 0 -- -- 50
2018-09-04 23:00:00 15.2 6 Oeste -- -- -- -- -- 79
2018-09-04 22:00:00 15.4 5 Oeste 8 Norte 0 -- -- 80
2018-09-04 21:00:00 17.6 4 Norte 10 Este 0 -- -- 72
2018-09-04 20:00:00 19.5 7 Este 21 Este 0 -- -- 64
2018-09-04 19:00:00 23.3 13 Este 32 Nordeste 0 -- -- 51
2018-09-04 18:00:00 23.4 15 Este 28 Este 0 -- -- 50
2018-09-04 17:00:00 25.2 14 Este 20 Este 0 -- -- 40
2018-09-04 16:00:00 23.1 13 Nordeste 31 Este 0 -- -- 48
2018-09-04 15:00:00 25.3 13 Este 22 Sudeste 0.2 -- -- 51
2018-09-04 14:00:00 24.5 5 Sudeste 21 Este 0 -- -- 50
2018-09-04 13:00:00 25.4 5 Oeste 18 Este 0 -- -- 45
2018-09-04 12:00:00 25.3 9 Este 17 Este 0 -- -- 46
2018-09-04 11:00:00 23.6 6 Este 12 Este 0 -- -- 51
2018-09-04 10:00:00 21.3 0 Calma 5 Nordeste 0 -- -- 58
2018-09-04 09:00:00 15.9 0 Calma 6 Oeste 0 -- -- 77
2018-09-04 08:00:00 12.9 5 Oeste 9 Oeste 0 -- -- 85
2018-09-04 07:00:00 12.4 0 Calma 9 Oeste 0 -- -- 87
2018-09-04 06:00:00 13 3 Sur 11 Oeste 0 -- -- 84
2018-09-04 05:00:00 12.9 4 Oeste 8 Sudoeste 0 -- -- 83
2018-09-04 04:00:00 14.3 3 Sudoeste 10 Norte 0 -- -- 75
2018-09-04 03:00:00 15.9 3 Noroeste 31 Sudoeste 0 -- -- 67
2018-09-04 02:00:00 18.9 22 Sudoeste 34 Sudoeste 0 -- -- 55
2018-09-04 01:00:00 19.3 22 Sudoeste 41 Sudoeste 0 -- -- 52
2018-09-04 00:00:00 19.2 24 Sudoeste 40 Sudoeste 0 -- -- 51
2018-09-03 23:00:00 19.3 23 Sudoeste 39 Sudoeste 0 -- -- 52
2018-09-03 22:00:00 20 19 Sur 54 Sur 0 -- -- 52
2018-09-03 21:00:00 19.4 30 Sur 48 Sur 0 -- -- 59
2018-09-03 20:00:00 23.5 22 Sudoeste 46 Sudoeste 0 -- -- 39
2018-09-03 19:00:00 26 14 Sudoeste 27 Sudoeste 0 -- -- 27
2018-09-03 18:00:00 27.5 12 Oeste 34 Oeste 0 -- -- 25
2018-09-03 17:00:00 30.3 6 Sudoeste 34 Sudeste 0 -- -- 27
2018-09-03 16:00:00 28.3 23 Este 43 Sudeste 0 -- -- 48
2018-09-03 15:00:00 26.8 17 Sudeste 30 Sudeste 0 -- -- 47
2018-09-03 14:00:00 26.7 13 Sudeste 22 Este 0 -- -- 49
2018-09-03 13:00:00 24.5 8 Sudeste 14 Sur 0 -- -- 55
2018-09-03 12:00:00 21.8 8 Este 14 Este 0 -- -- 69
2018-09-03 11:00:00 18.2 6 Sur 16 Sur 1.8 -- -- 84
2018-09-03 10:00:00 19.6 0 Calma 12 Nordeste 0 -- -- 78
2018-09-03 09:00:00 18.1 4 Nordeste 10 Oeste 0 -- -- 82
2018-09-03 08:00:00 16.9 8 Sur 26 Norte 1.2 -- -- 81
2018-09-03 07:00:00 17.5 12 Noroeste 16 Noroeste 0 -- -- 85
2018-09-03 06:00:00 16.1 3 Sudeste 12 Sudeste 0 -- -- 92
2018-09-03 05:00:00 17.5 4 Sudeste 29 Noroeste 0 -- -- 85
2018-09-03 04:00:00 15.6 3 Sudoeste 6 Sudoeste 0 -- -- 90
2018-09-03 03:00:00 15.2 3 Sudoeste 8 Oeste 0 -- -- 90
2018-09-03 02:00:00 15.5 4 Oeste 6 Oeste 0 -- -- 88
2018-09-03 01:00:00 16.2 0 Calma 4 Oeste 0 -- -- 85
2018-09-03 00:00:00 17.3 0 Calma 4 Oeste 0 -- -- 84
2018-09-02 23:00:00 17.7 2 Oeste 9 Oeste 0 -- -- 82
2018-09-02 22:00:00 17.4 5 Oeste 8 Oeste 0 -- -- 87
2018-09-02 21:00:00 20.2 3 Sur 21 Nordeste 0.4 -- -- 70
2018-09-02 20:00:00 22.1 6 Oeste 15 Este 1.6 -- -- 68
2018-09-02 19:00:00 27.3 8 Nordeste 15 Norte 0 -- -- 40
2018-09-02 18:00:00 29.7 7 Norte 17 Norte 0 -- -- 33
2018-09-02 17:00:00 30.1 9 Norte 20 Norte 0 -- -- 37
2018-09-02 16:00:00 29.6 9 Norte 30 Oeste 0 -- -- 35
2018-09-02 15:00:00 26.5 9 Sur 17 Sur 0 -- -- 42
2018-09-02 14:00:00 29.2 11 Nordeste 28 Noroeste 0 -- -- 43
2018-09-02 13:00:00 28.1 11 Oeste 22 Oeste 0 -- -- 40
2018-09-02 12:00:00 26.7 6 Sudeste 13 Sudeste 0 -- -- 51
2018-09-02 11:00:00 24.1 5 Sudeste 8 Este 0 -- -- 61
2018-09-02 10:00:00 21 3 Sudeste 7 Este 0 -- -- 73
2018-09-02 09:00:00 17.9 0 Calma 9 Oeste 0 -- -- 79
2018-09-02 08:00:00 13.7 6 Oeste 12 Sudoeste 0 -- -- 90
2018-09-02 07:00:00 13.9 4 Oeste 8 Oeste 0 -- -- 88
2018-09-02 06:00:00 13.8 6 Oeste 8 Oeste 0 -- -- 87
2018-09-02 05:00:00 13.1 4 Oeste 8 Oeste 0 -- -- 82
2018-09-02 04:00:00 14.1 4 Oeste 9 Oeste 0 -- -- 77
2018-09-02 03:00:00 14.1 2 Oeste 9 Oeste 0 -- -- 75
2018-09-02 02:00:00 14.5 4 Oeste 8 Oeste 0 -- -- 73
2018-09-02 01:00:00 15.5 3 Oeste 5 Nordeste 0 -- -- 71
2018-09-02 00:00:00 17.1 0 Calma 5 Este 0 -- -- 62
2018-09-01 23:00:00 17.7 3 Este 6 Sudeste 0 -- -- 63
2018-09-01 22:00:00 19.1 0 Calma 13 Este 0 -- -- 58
2018-09-01 21:00:00 21.8 9 Este 20 Este 0 -- -- 46
2018-09-01 20:00:00 26 12 Este 22 Este 0 -- -- 38
2018-09-01 19:00:00 28.3 10 Nordeste 18 Nordeste 0 -- -- 35
2018-09-01 18:00:00 28.8 9 Nordeste 24 Nordeste 0 -- -- 34
2018-09-01 17:00:00 29 5 Nordeste 24 Nordeste 0 -- -- 36
2018-09-01 16:00:00 28.1 8 Norte 22 Este 0 -- -- 37
2018-09-01 15:00:00 27.6 7 Este 23 Este 0 -- -- 40
2018-09-01 14:00:00 26.4 9 Nordeste 20 Este 0 -- -- 44
2018-09-01 13:00:00 25.5 10 Sudeste 18 Este 0 -- -- 45
2018-09-01 12:00:00 24.4 8 Este 15 Este 0 -- -- 45
2018-09-01 11:00:00 23.3 8 Este 14 Este 0 -- -- 46
2018-09-01 10:00:00 20.8 7 Este 10 Sudeste 0 -- -- 59
2018-09-01 09:00:00 16.2 2 Nordeste 5 Oeste 0 -- -- 79
2018-09-01 08:00:00 12 4 Oeste 7 Oeste 0 -- -- 91
2018-09-01 07:00:00 11.8 4 Oeste 6 Oeste 0 -- -- 92
2018-09-01 06:00:00 11.8 3 Oeste 4 Oeste 0 -- -- 93
2018-09-01 05:00:00 12.4 3 Este 5 Este 0 -- -- 92
2018-09-01 04:00:00 12.4 0 Calma 4 Sudoeste 0 -- -- 90
2018-09-01 03:00:00 13.1 0 Calma -- -- -- -- -- 88
2018-09-01 02:00:00 13.6 4 Este 5 Este 0 -- -- 87
2018-09-01 01:00:00 14.6 4 Este 12 Sudeste 0 -- -- 82
2018-09-01 00:00:00 15.5 8 Este 11 Sudeste 0 -- -- 76
2018-08-31 23:00:00 17.6 9 Este 17 Este 0 -- -- 65
2018-08-31 22:00:00 17.8 7 Nordeste 23 Este 0 -- -- 66
2018-08-31 21:00:00 20.5 15 Este 23 Este 0 -- -- 52
2018-08-31 20:00:00 23.8 11 Nordeste 21 Este 0 -- -- 46
2018-08-31 19:00:00 25.4 18 Este 26 Nordeste 0 -- -- 42
2018-08-31 18:00:00 26.3 14 Nordeste 32 Nordeste 0 -- -- 42
2018-08-31 17:00:00 26.5 14 Nordeste 30 Norte 0 -- -- 46
2018-08-31 16:00:00 26.4 15 Nordeste 27 Nordeste 0 -- -- 50
2018-08-31 15:00:00 26.3 12 Nordeste 22 Nordeste 0 -- -- 52
2018-08-31 14:00:00 25.9 13 Nordeste 21 Norte 0 -- -- 56
2018-08-31 13:00:00 24.6 10 Nordeste 28 Noroeste 0 -- -- 65
2018-08-31 12:00:00 23 7 Noroeste 15 Noroeste 0 -- -- 63
2018-08-31 11:00:00 20.2 4 Sudeste 12 Sudeste 0 -- -- 83
2018-08-31 10:00:00 16.8 4 Sudeste 8 Sudeste 0 -- -- 96
2018-08-31 09:00:00 14.3 2 Oeste 4 Oeste 0 -- -- 96
2018-08-31 08:00:00 13 0 Calma 6 Oeste 0 -- -- 98
2018-08-31 07:00:00 13 4 Oeste 6 Oeste 0.2 -- -- 97
2018-08-31 06:00:00 13.1 3 Oeste 4 Oeste 0 -- -- 97
2018-08-31 05:00:00 13.4 0 Calma 4 Este 0 -- -- 97
2018-08-31 04:00:00 13.2 2 Sudoeste 6 Oeste 0 -- -- 96
2018-08-31 03:00:00 13.7 2 Oeste 6 Oeste 0 -- -- 94
2018-08-31 02:00:00 14.5 0 Calma 5 Nordeste 0 -- -- 93
2018-08-31 01:00:00 14.8 0 Calma 7 Nordeste 0 -- -- 93
2018-08-31 00:00:00 15.4 0 Calma 5 Sudoeste 0 -- -- 94
2018-08-30 23:00:00 15.8 0 Calma 10 Oeste 0 -- -- 91
2018-08-30 22:00:00 16.1 3 Sudoeste 59 Oeste 5.6 -- -- 88
2018-08-30 21:00:00 20.6 3 Sudeste 12 Este 0 -- -- 73
2018-08-30 20:00:00 22.6 9 Este 18 Este 0 -- -- 64
2018-08-30 19:00:00 24.5 14 Este 27 Este 0.2 -- -- 58
2018-08-30 18:00:00 25.9 12 Sudeste 19 Sudeste 0 -- -- 51
2018-08-30 17:00:00 24.1 11 Sudeste 18 Sudeste 0 -- -- 59
2018-08-30 16:00:00 19.9 8 Sur 50 Sudoeste 10.4 -- -- 83
2018-08-30 15:00:00 -- -- -- -- -- -- -- -- --
2018-08-30 14:00:00 -- -- -- -- -- -- -- -- --
2018-08-30 13:00:00 -- -- -- -- -- -- -- -- --
2018-08-30 12:00:00 -- -- -- -- -- -- -- -- --
2018-08-30 11:00:00 -- -- -- -- -- -- -- -- --
2018-08-30 10:00:00 -- -- -- -- -- -- -- -- --
2018-08-30 09:00:00 -- -- -- -- -- -- -- -- --
2018-08-30 08:00:00 -- -- -- -- -- -- -- -- --
2018-08-30 07:00:00 -- -- -- -- -- -- -- -- --
2018-08-30 06:00:00 -- -- -- -- -- -- -- -- --
2018-08-30 05:00:00 -- -- -- -- -- -- -- -- --
2018-08-30 04:00:00 -- -- -- -- -- -- -- -- --
2018-08-30 03:00:00 -- -- -- -- -- -- -- -- --
2018-08-30 02:00:00 -- -- -- -- -- -- -- -- --
2018-08-30 01:00:00 -- -- -- -- -- -- -- -- --
2018-08-30 00:00:00 -- -- -- -- -- -- -- -- --
2018-08-29 23:00:00 -- -- -- -- -- -- -- -- --
2018-08-29 22:00:00 -- -- -- -- -- -- -- -- --
2018-08-29 21:00:00 -- -- -- -- -- -- -- -- --
2018-08-29 20:00:00 -- -- -- -- -- -- -- -- --
2018-08-29 19:00:00 -- -- -- -- -- -- -- -- --
2018-08-29 18:00:00 -- -- -- -- -- -- -- -- --
2018-08-29 17:00:00 -- -- -- -- -- -- -- -- --
2018-08-29 16:00:00 -- -- -- -- -- -- -- -- --
2018-08-29 15:00:00 -- -- -- -- -- -- -- -- --
2018-08-29 14:00:00 -- -- -- -- -- -- -- -- --
2018-08-29 13:00:00 -- -- -- -- -- -- -- -- --
2018-08-29 12:00:00 -- -- -- -- -- -- -- -- --
2018-08-29 11:00:00 -- -- -- -- -- -- -- -- --
2018-08-29 10:00:00 -- -- -- -- -- -- -- -- --
2018-08-29 09:00:00 -- -- -- -- -- -- -- -- --
2018-08-29 08:00:00 -- -- -- -- -- -- -- -- --
2018-08-29 07:00:00 -- -- -- -- -- -- -- -- --
2018-08-29 06:00:00 -- -- -- -- -- -- -- -- --
2018-08-29 05:00:00 -- -- -- -- -- -- -- -- --
2018-08-29 04:00:00 -- -- -- -- -- -- -- -- --
2018-08-29 03:00:00 -- -- -- -- -- -- -- -- --
2018-08-29 02:00:00 -- -- -- -- -- -- -- -- --
2018-08-29 01:00:00 -- -- -- -- -- -- -- -- --
2018-08-29 00:00:00 -- -- -- -- -- -- -- -- --
2018-08-28 23:00:00 -- -- -- -- -- -- -- -- --
2018-08-28 22:00:00 -- -- -- -- -- -- -- -- --
2018-08-28 21:00:00 -- -- -- -- -- -- -- -- --
2018-08-28 20:00:00 -- -- -- -- -- -- -- -- --
2018-08-28 19:00:00 -- -- -- -- -- -- -- -- --
2018-08-28 18:00:00 29.2 10 Oeste 27 Sudoeste 0 -- -- 33
2018-08-28 17:00:00 31.3 14 Sudoeste 36 Oeste 0 -- -- 29
2018-08-28 16:00:00 30.7 13 Oeste 36 Sudoeste 0 -- -- 29
2018-08-28 15:00:00 30.7 18 Sudoeste 39 Sudoeste 0 -- -- 29
2018-08-28 14:00:00 28.3 20 Sudoeste 35 Sudoeste 0 -- -- 33
2018-08-28 13:00:00 27.3 17 Oeste 30 Oeste 0 -- -- 34
2018-08-28 12:00:00 26.7 14 Oeste 26 Oeste 0 -- -- 37
2018-08-28 11:00:00 25.7 5 Sudeste 9 Sudeste 0 -- -- 47
2018-08-28 10:00:00 21.6 6 Sudeste 11 Sudeste 0 -- -- 65
2018-08-28 09:00:00 18.2 2 Noroeste 6 Oeste 0 -- -- 73
2018-08-28 08:00:00 16.7 3 Norte 8 Norte 0 -- -- 72
2018-08-28 07:00:00 14.8 4 Norte 9 Oeste 0 -- -- 70
2018-08-28 06:00:00 14.4 2 Oeste 10 Este 0 -- -- 67
2018-08-28 05:00:00 14.4 3 Sudoeste 8 Oeste 0 -- -- 65
2018-08-28 04:00:00 14.8 0 Calma 5 Este 0 -- -- 67
2018-08-28 03:00:00 16.3 0 Calma 10 Este 0 -- -- 59
2018-08-28 02:00:00 19.1 6 Oeste 12 Sudoeste 0 -- -- 51
2018-08-28 01:00:00 16.5 4 Noroeste 10 Este 0 -- -- 62
2018-08-28 00:00:00 17.8 0 Calma 12 Oeste 0 -- -- 62
2018-08-27 23:00:00 18.3 4 Oeste 8 Oeste 0 -- -- 58
2018-08-27 22:00:00 20.8 4 Oeste 9 Oeste 0 -- -- 44
2018-08-27 21:00:00 25.2 5 Noroeste 18 Oeste 0 -- -- 29
2018-08-27 20:00:00 30.2 11 Oeste 25 Oeste 0 -- -- 20
2018-08-27 19:00:00 32.5 9 Oeste 23 Oeste 0 -- -- 19
2018-08-27 18:00:00 32.7 7 Nordeste 22 Sudeste 0 -- -- 25
2018-08-27 17:00:00 32.6 16 Este 24 Este 0 -- -- 26
2018-08-27 16:00:00 32 10 Este 19 Este 0 -- -- 27
2018-08-27 15:00:00 31.9 7 Este 21 Norte 0 -- -- 27
2018-08-27 14:00:00 29.9 7 Sur 16 Este 0 -- -- 28
2018-08-27 13:00:00 29.9 9 Este 20 Este 0 -- -- 30
2018-08-27 12:00:00 28.3 9 Sudeste 14 Sudeste 0 -- -- 36
2018-08-27 11:00:00 26.8 4 Sudeste 10 Sudeste 0 -- -- 41
2018-08-27 10:00:00 24.2 4 Este 8 Sudeste 0 -- -- 43
2018-08-27 09:00:00 17.6 2 Sudoeste 12 Oeste 0 -- -- 64
2018-08-27 08:00:00 12.6 7 Oeste 11 Oeste 0 -- -- 77
2018-08-27 07:00:00 12 3 Oeste 10 Oeste 0 -- -- 79
2018-08-27 06:00:00 11.4 5 Oeste 8 Oeste 0 -- -- 81
2018-08-27 05:00:00 12.7 4 Oeste 10 Sudoeste 0 -- -- 76
2018-08-27 04:00:00 12.5 5 Oeste 10 Oeste 0 -- -- 76
2018-08-27 03:00:00 13.3 6 Oeste 9 Oeste 0 -- -- 70
2018-08-27 02:00:00 14.7 5 Oeste 12 Oeste 0 -- -- 65
2018-08-27 01:00:00 15.3 7 Oeste 11 Oeste 0 -- -- 65
2018-08-27 00:00:00 16.1 7 Oeste 12 Oeste 0 -- -- 61
2018-08-26 23:00:00 17.3 5 Oeste 13 Norte 0 -- -- 55
2018-08-26 22:00:00 19.8 5 Oeste 8 Oeste 0 -- -- 48
2018-08-26 21:00:00 21.4 6 Oeste 12 Oeste 0 -- -- 46
2018-08-26 20:00:00 25.9 7 Noroeste 22 Noroeste 0 -- -- 33
2018-08-26 19:00:00 27.9 10 Noroeste 28 Oeste 0 -- -- 31
2018-08-26 18:00:00 28.8 15 Oeste 28 Oeste 0 -- -- 30
2018-08-26 17:00:00 28.7 13 Oeste 32 Oeste 0 -- -- 30
2018-08-26 16:00:00 28.5 10 Oeste 29 Oeste 0 -- -- 31
2018-08-26 15:00:00 27.4 14 Noroeste 28 Noroeste 0 -- -- 35
2018-08-26 14:00:00 25.9 12 Noroeste 25 Oeste 0 -- -- 37
2018-08-26 13:00:00 24.9 10 Noroeste 21 Oeste 0 -- -- 39
2018-08-26 12:00:00 22.8 9 Nordeste 23 Oeste 0 -- -- 52
2018-08-26 11:00:00 22 10 Oeste 22 Noroeste 0 -- -- 52
2018-08-26 10:00:00 16 3 Este 5 Este 0 -- -- 72
2018-08-26 09:00:00 13.1 2 Este 3 Noroeste 0 -- -- 79
2018-08-26 08:00:00 8.3 0 Calma 3 Este 0 -- -- 94
2018-08-26 07:00:00 8.3 3 Oeste 10 Oeste 0 -- -- 91
2018-08-26 06:00:00 7.8 4 Oeste 6 Oeste 0 -- -- 91
2018-08-26 05:00:00 8.8 0 Calma 3 Sudeste 0 -- -- 89
2018-08-26 04:00:00 9.2 0 Calma 4 Norte 0 -- -- 89
2018-08-26 03:00:00 9.4 0 Calma 3 Norte 0 -- -- 89
2018-08-26 02:00:00 9.9 2 Este 8 Sudeste 0 -- -- 86
2018-08-26 01:00:00 11.3 7 Sudeste 11 Sudeste 0 -- -- 81
2018-08-26 00:00:00 11.6 6 Este 11 Este 0 -- -- 80
2018-08-25 23:00:00 13.3 9 Este 15 Este 0 -- -- 73
2018-08-25 22:00:00 14.6 9 Nordeste 17 Nordeste 0 -- -- 69
2018-08-25 21:00:00 17.1 10 Nordeste 19 Este 0 -- -- 58
2018-08-25 20:00:00 20.4 11 Nordeste 26 Nordeste 0 -- -- 49
2018-08-25 19:00:00 22.6 18 Nordeste 27 Nordeste 0 -- -- 43
2018-08-25 18:00:00 24.3 12 Nordeste 31 Nordeste 0 -- -- 40
2018-08-25 17:00:00 25.2 13 Nordeste 27 Nordeste 0 -- -- 39
2018-08-25 16:00:00 26 15 Norte 26 Norte 0 -- -- 38
2018-08-25 15:00:00 26.5 10 Norte 27 Nordeste 0 -- -- 36
2018-08-25 14:00:00 25.5 9 Norte 24 Nordeste 0 -- -- 39
2018-08-25 13:00:00 23.9 12 Nordeste 17 Nordeste 0 -- -- 47
2018-08-25 12:00:00 23 5 Sudeste 12 Este 0 -- -- 50
2018-08-25 11:00:00 20.1 6 Sudeste 10 Este 0 -- -- 60
2018-08-25 10:00:00 17.6 3 Este 8 Sudeste 0 -- -- 69
2018-08-25 09:00:00 13 2 Sur 4 Oeste 0 -- -- 84
2018-08-25 08:00:00 9.7 4 Oeste 7 Oeste 0 -- -- 94
2018-08-25 07:00:00 10.4 6 Oeste 9 Oeste 0 -- -- 92
2018-08-25 06:00:00 10.4 4 Sudoeste 8 Oeste 0 -- -- 94
2018-08-25 05:00:00 10.8 3 Oeste 8 Oeste 0 -- -- 93
2018-08-25 04:00:00 11.4 3 Oeste 10 Oeste 0 -- -- 92
2018-08-25 03:00:00 11.4 6 Oeste 9 Sudoeste 0 -- -- 94
2018-08-25 02:00:00 11.8 2 Oeste 8 Oeste 0 -- -- 90
2018-08-25 01:00:00 12.1 0 Calma 5 Oeste 0 -- -- 90
2018-08-25 00:00:00 13.1 0 Calma 10 Nordeste 0 -- -- 87
2018-08-24 23:00:00 14.6 7 Nordeste 15 Nordeste 0 -- -- 81
2018-08-24 22:00:00 16.1 8 Nordeste 18 Nordeste 0 -- -- 76
2018-08-24 21:00:00 17.9 11 Nordeste 26 Nordeste 0 -- -- 68
2018-08-24 20:00:00 21.2 18 Nordeste 27 Nordeste 0 -- -- 56
2018-08-24 19:00:00 25 16 Nordeste 24 Este 0 -- -- 41
2018-08-24 18:00:00 27 10 Norte 24 Norte 0 -- -- 31
2018-08-24 17:00:00 26.4 13 Norte 27 Norte 0 -- -- 33
2018-08-24 16:00:00 26.7 8 Norte 28 Noroeste 0 -- -- 37
2018-08-24 15:00:00 25.2 13 Norte 25 Nordeste 0 -- -- 43
2018-08-24 14:00:00 24.1 9 Nordeste 17 Nordeste 0 -- -- 45
2018-08-24 13:00:00 22.2 9 Nordeste 18 Nordeste 0 -- -- 58
2018-08-24 12:00:00 22 4 Nordeste 13 Sudeste 0 -- -- 61
2018-08-24 11:00:00 19.4 7 Este 14 Este 0 -- -- 70
2018-08-24 10:00:00 17 10 Sudeste 16 Este 0 -- -- 80
2018-08-24 09:00:00 15.3 4 Sur 9 Sur 0 -- -- 80
2018-08-24 08:00:00 11.4 5 Oeste 8 Oeste 0 -- -- 88
2018-08-24 07:00:00 11.2 4 Oeste 8 Oeste 0 -- -- 87
2018-08-24 06:00:00 11.5 2 Noroeste 11 Oeste 0 -- -- 87
2018-08-24 05:00:00 11.6 3 Oeste 14 Oeste 0 -- -- 88
2018-08-24 04:00:00 12 6 Oeste 10 Sudoeste 0 -- -- 87
2018-08-24 03:00:00 12.7 6 Oeste 12 Oeste 0 -- -- 85
2018-08-24 02:00:00 13.7 7 Oeste 12 Oeste 0 -- -- 82
2018-08-24 01:00:00 13.5 6 Oeste 11 Oeste 0 -- -- 87
2018-08-24 00:00:00 14.6 0 Calma 8 Oeste 0 -- -- 80